Time;durP1;ratioP1;P1;durP2;ratioP2;P2;SDS_P1;SDS_P2;PMS_P1;PMS_P2;Temp;Humidity;BMP_temperature;BMP_pressure;BME280_temperature;BME280_humidity;BME280_pressure;Samples;Min_cycle;Max_cycle;Signal;HPM_P1;HPM_P2
2023/07/09 00:00:18;;;;;;;4.25;3.85;;;;;;;;;;10330623;28;20083;-61
2023/07/09 00:05:18;;;;;;;4.90;3.75;;;;;;;;;;10331363;28;20067;-60
2023/07/09 00:10:17;;;;;;;5.57;4.18;;;;;;;;;;10328744;28;20080;-61
2023/07/09 00:15:18;;;;;;;4.43;3.92;;;;;;;;;;10330994;28;20068;-61
2023/07/09 00:20:17;;;;;;;4.65;4.25;;;;;;;;;;10329508;28;20068;-60
2023/07/09 00:25:16;;;;;;;5.07;4.57;;;;;;;;;;10329788;28;20068;-60
2023/07/09 00:30:18;;;;;;;4.40;3.53;;;;;;;;;;10329325;28;20079;-61
2023/07/09 00:35:16;;;;;;;7.45;3.97;;;;;;;;;;10329893;28;20086;-60
2023/07/09 00:40:15;;;;;;;6.38;3.92;;;;;;;;;;10303693;28;20053;-60
2023/07/09 00:45:20;;;;;;;5.60;4.15;;;;;;;;;;10329015;28;20087;-60
2023/07/09 00:50:27;;;;;;;7.60;3.58;;;;;;;;;;10329922;28;20096;-60
2023/07/09 00:55:28;;;;;;;3.97;3.60;;;;;;;;;;10330226;28;20098;-61
2023/07/09 01:00:29;;;;;;;5.70;4.20;;;;;;;;;;10335826;28;20043;-60
2023/07/09 01:05:28;;;;;;;5.95;4.43;;;;;;;;;;10318180;28;20103;-60
2023/07/09 01:10:26;;;;;;;4.63;3.60;;;;;;;;;;10332795;28;20494;-60
2023/07/09 01:15:24;;;;;;;4.22;3.83;;;;;;;;;;10335697;28;20080;-60
2023/07/09 01:20:24;;;;;;;4.55;4.15;;;;;;;;;;10316909;28;20083;-60
2023/07/09 01:25:24;;;;;;;4.38;3.58;;;;;;;;;;10318800;28;20082;-60
2023/07/09 01:30:23;;;;;;;5.32;3.85;;;;;;;;;;10316348;28;20052;-60
2023/07/09 01:35:21;;;;;;;8.73;3.85;;;;;;;;;;10333592;28;20497;-59
2023/07/09 01:40:21;;;;;;;7.57;4.05;;;;;;;;;;10335532;28;20064;-60
2023/07/09 01:45:32;;;;;;;11.43;4.93;;;;;;;;;;10334151;28;20044;-60
2023/07/09 01:50:31;;;;;;;6.03;3.72;;;;;;;;;;10336354;28;20143;-60
2023/07/09 01:55:30;;;;;;;8.25;4.22;;;;;;;;;;10334770;28;20040;-60
2023/07/09 02:00:31;;;;;;;6.13;4.07;;;;;;;;;;10317089;28;20069;-60
2023/07/09 02:05:31;;;;;;;6.28;4.00;;;;;;;;;;10313767;28;20076;-60
2023/07/09 02:10:29;;;;;;;5.00;3.50;;;;;;;;;;10331296;28;20064;-60
2023/07/09 02:15:32;;;;;;;8.15;4.50;;;;;;;;;;10332782;28;20075;-59
2023/07/09 02:20:30;;;;;;;4.22;3.70;;;;;;;;;;10315527;28;20075;-59
2023/07/09 02:25:28;;;;;;;6.80;4.38;;;;;;;;;;10333183;28;20094;-59
2023/07/09 02:30:27;;;;;;;6.57;3.83;;;;;;;;;;10332780;28;20512;-59
2023/07/09 02:35:26;;;;;;;6.35;4.57;;;;;;;;;;10332204;28;20076;-60
2023/07/09 02:40:24;;;;;;;6.53;4.13;;;;;;;;;;10331918;28;20064;-60
2023/07/09 02:45:23;;;;;;;4.82;3.83;;;;;;;;;;10333824;28;20071;-59
2023/07/09 02:50:21;;;;;;;4.75;3.60;;;;;;;;;;10315525;28;20180;-60
2023/07/09 02:55:20;;;;;;;8.23;4.68;;;;;;;;;;10332743;28;20080;-60
2023/07/09 03:00:19;;;;;;;13.70;4.65;;;;;;;;;;10332691;28;20067;-59
2023/07/09 03:05:17;;;;;;;4.80;4.00;;;;;;;;;;10330680;28;20506;-61
2023/07/09 03:10:15;;;;;;;5.93;3.97;;;;;;;;;;10323145;28;20083;-59
2023/07/09 03:15:15;;;;;;;6.75;4.70;;;;;;;;;;10331860;28;20072;-60
2023/07/09 03:20:13;;;;;;;6.15;4.20;;;;;;;;;;10330348;28;20083;-59
2023/07/09 03:25:12;;;;;;;5.00;4.22;;;;;;;;;;10326120;28;20079;-59
2023/07/09 03:30:10;;;;;;;6.40;4.53;;;;;;;;;;10313053;28;20074;-60
2023/07/09 03:35:10;;;;;;;6.32;4.35;;;;;;;;;;10314161;28;20076;-59
2023/07/09 03:40:11;;;;;;;5.65;4.53;;;;;;;;;;10311898;28;20075;-59
2023/07/09 03:45:09;;;;;;;7.28;4.60;;;;;;;;;;10331774;28;20075;-60
2023/07/09 03:50:09;;;;;;;8.48;5.05;;;;;;;;;;10329355;28;20083;-59
2023/07/09 03:55:09;;;;;;;5.95;5.13;;;;;;;;;;10330229;28;20075;-59
2023/07/09 04:00:10;;;;;;;5.05;4.60;;;;;;;;;;10325500;28;20037;-61
2023/07/09 04:05:14;;;;;;;7.15;6.35;;;;;;;;;;10334706;28;20090;-60
2023/07/09 04:10:14;;;;;;;7.65;6.20;;;;;;;;;;10329742;28;20075;-60
2023/07/09 04:15:13;;;;;;;8.85;5.35;;;;;;;;;;10331057;28;20075;-59
2023/07/09 04:20:12;;;;;;;5.85;5.22;;;;;;;;;;10330710;28;20446;-60
2023/07/09 04:25:11;;;;;;;6.20;4.60;;;;;;;;;;10319067;28;20422;-59
2023/07/09 04:30:11;;;;;;;6.43;5.53;;;;;;;;;;10330749;28;20064;-59
2023/07/09 04:35:11;;;;;;;5.68;5.10;;;;;;;;;;10333603;28;20458;-59
2023/07/09 04:40:10;;;;;;;7.20;5.05;;;;;;;;;;10337209;28;20079;-60
2023/07/09 04:45:09;;;;;;;5.50;4.40;;;;;;;;;;10337143;28;20075;-60
2023/07/09 04:50:10;;;;;;;5.10;4.35;;;;;;;;;;10336241;28;20132;-60
2023/07/09 04:55:09;;;;;;;9.00;4.57;;;;;;;;;;10342961;28;20076;-59
2023/07/09 05:00:08;;;;;;;9.32;5.32;;;;;;;;;;10339193;28;20067;-60
2023/07/09 05:05:11;;;;;;;7.03;5.20;;;;;;;;;;10337257;28;20087;-59
2023/07/09 05:10:10;;;;;;;8.10;5.63;;;;;;;;;;10315999;28;20056;-59
2023/07/09 05:15:08;;;;;;;8.07;5.32;;;;;;;;;;10330866;28;20079;-59
2023/07/09 05:20:07;;;;;;;7.10;5.40;;;;;;;;;;10336284;28;20041;-59
2023/07/09 05:25:07;;;;;;;12.40;5.85;;;;;;;;;;10325932;28;20043;-59
2023/07/09 05:30:06;;;;;;;7.90;5.55;;;;;;;;;;10336731;28;20080;-59
2023/07/09 05:35:05;;;;;;;5.60;5.10;;;;;;;;;;10333337;28;20079;-59
2023/07/09 05:40:04;;;;;;;8.80;5.68;;;;;;;;;;10335356;28;20064;-59
2023/07/09 05:45:04;;;;;;;6.15;5.60;;;;;;;;;;10333780;28;20076;-60
2023/07/09 05:50:02;;;;;;;10.32;6.65;;;;;;;;;;10325358;28;20075;-59
2023/07/09 05:55:00;;;;;;;6.97;6.38;;;;;;;;;;10333828;28;20478;-59
2023/07/09 05:59:59;;;;;;;6.85;6.15;;;;;;;;;;10333781;28;20078;-59
2023/07/09 06:04:58;;;;;;;8.50;6.68;;;;;;;;;;10333763;28;20076;-60
2023/07/09 06:09:57;;;;;;;6.65;5.90;;;;;;;;;;10325555;28;20065;-60
2023/07/09 06:14:55;;;;;;;8.05;7.25;;;;;;;;;;10331549;28;20083;-60
2023/07/09 06:19:55;;;;;;;6.65;5.88;;;;;;;;;;10333609;28;20064;-59
2023/07/09 06:24:58;;;;;;;7.53;6.70;;;;;;;;;;10330979;28;20072;-59
2023/07/09 06:29:56;;;;;;;10.05;6.28;;;;;;;;;;10324096;28;20079;-60
2023/07/09 06:34:54;;;;;;;6.57;5.88;;;;;;;;;;10332779;28;20067;-60
2023/07/09 06:39:52;;;;;;;9.05;6.72;;;;;;;;;;10332179;28;20063;-60
2023/07/09 06:44:52;;;;;;;5.95;5.45;;;;;;;;;;10332129;28;20098;-60
2023/07/09 06:49:50;;;;;;;8.77;6.13;;;;;;;;;;10332517;28;20080;-59
2023/07/09 06:54:49;;;;;;;8.77;6.18;;;;;;;;;;10321867;28;20079;-60
2023/07/09 06:59:47;;;;;;;13.40;8.50;;;;;;;;;;10321442;28;20082;-59
2023/07/09 07:04:47;;;;;;;7.70;5.97;;;;;;;;;;10332508;28;20087;-60
2023/07/09 07:09:45;;;;;;;8.25;6.05;;;;;;;;;;10331196;28;20075;-60
2023/07/09 07:14:43;;;;;;;17.73;14.68;;;;;;;;;;10330321;28;20080;-59
2023/07/09 07:19:41;;;;;;;9.23;6.20;;;;;;;;;;10327035;28;20650;-59
2023/07/09 07:24:41;;;;;;;8.27;4.72;;;;;;;;;;10330828;28;20070;-59
2023/07/09 07:29:39;;;;;;;6.03;4.20;;;;;;;;;;10332661;28;20094;-59
2023/07/09 07:34:37;;;;;;;4.75;4.32;;;;;;;;;;10330815;28;20076;-60
2023/07/09 07:39:36;;;;;;;4.85;3.83;;;;;;;;;;10330703;28;20079;-59
2023/07/09 07:44:35;;;;;;;7.50;4.55;;;;;;;;;;10325789;28;20064;-60
2023/07/09 07:49:34;;;;;;;5.22;3.28;;;;;;;;;;10328668;28;20076;-60
2023/07/09 07:54:32;;;;;;;8.18;3.40;;;;;;;;;;10330563;28;20094;-60
2023/07/09 07:59:34;;;;;;;5.88;2.35;;;;;;;;;;10328794;28;20069;-61
2023/07/09 08:04:34;;;;;;;4.05;3.55;;;;;;;;;;10327039;28;20449;-58
2023/07/09 08:09:32;;;;;;;3.17;2.75;;;;;;;;;;10333257;28;20170;-59
2023/07/09 08:14:30;;;;;;;4.15;2.92;;;;;;;;;;10336278;28;20083;-59
2023/07/09 08:19:28;;;;;;;4.78;3.03;;;;;;;;;;10339421;28;20075;-59
2023/07/09 08:24:28;;;;;;;3.45;2.80;;;;;;;;;;10337643;28;20082;-60
2023/07/09 08:29:26;;;;;;;3.15;2.63;;;;;;;;;;10335104;28;20881;-60
2023/07/09 08:34:24;;;;;;;3.45;2.95;;;;;;;;;;10333006;28;20547;-60
2023/07/09 08:39:23;;;;;;;3.28;2.53;;;;;;;;;;10335588;28;20513;-60
2023/07/09 08:44:31;;;;;;;3.70;2.75;;;;;;;;;;10337955;28;20068;-60
2023/07/09 08:49:35;;;;;;;5.20;3.35;;;;;;;;;;10334268;28;20087;-60
2023/07/09 08:54:34;;;;;;;;;;;;;;;;;;10336803;28;20497;-60
2023/07/09 08:59:33;;;;;;;2.88;2.45;;;;;;;;;;10334862;28;19963;-60
2023/07/09 09:04:35;;;;;;;3.47;2.40;;;;;;;;;;10335772;28;20072;-60
2023/07/09 09:09:36;;;;;;;5.30;2.72;;;;;;;;;;10335435;28;20110;-60
2023/07/09 09:14:38;;;;;;;3.58;2.42;;;;;;;;;;10334977;28;20067;-61
2023/07/09 09:19:38;;;;;;;3.58;2.38;;;;;;;;;;10317168;28;20079;-58
2023/07/09 09:24:38;;;;;;;5.50;2.40;;;;;;;;;;10332140;28;20071;-60
2023/07/09 09:29:38;;;;;;;3.13;2.47;;;;;;;;;;10332131;28;20087;-60
2023/07/09 09:34:36;;;;;;;6.25;2.65;;;;;;;;;;10326453;28;20151;-60
2023/07/09 09:39:38;;;;;;;3.30;2.60;;;;;;;;;;10332266;28;20076;-57
2023/07/09 09:44:43;;;;;;;5.82;2.75;;;;;;;;;;10330805;28;20082;-58
2023/07/09 09:49:42;;;;;;;3.28;2.95;;;;;;;;;;10328183;28;20087;-59
2023/07/09 09:54:41;;;;;;;2.90;2.40;;;;;;;;;;10330770;28;20101;-59
2023/07/09 09:59:41;;;;;;;3.65;2.60;;;;;;;;;;10329797;28;20071;-59
2023/07/09 10:04:40;;;;;;;2.63;2.20;;;;;;;;;;10332160;28;20104;-59
2023/07/09 10:09:45;;;;;;;4.43;3.85;;;;;;;;;;10328531;28;20064;-59
2023/07/09 10:14:48;;;;;;;6.15;2.72;;;;;;;;;;10329309;28;20083;-59
2023/07/09 10:19:50;;;;;;;3.97;2.47;;;;;;;;;;10327151;28;20469;-60
2023/07/09 10:24:52;;;;;;;3.28;2.42;;;;;;;;;;10333336;28;20071;-60
2023/07/09 10:30:02;;;;;;;2.47;1.98;;;;;;;;;;10331372;28;20072;-60
2023/07/09 10:35:23;;;;;;;2.58;2.38;;;;;;;;;;10334651;28;20118;-58
2023/07/09 10:40:25;;;;;;;3.85;2.50;;;;;;;;;;10333314;28;20064;-58
2023/07/09 10:45:29;;;;;;;2.30;2.10;;;;;;;;;;10331634;28;20068;-58
2023/07/09 10:50:29;;;;;;;3.53;2.72;;;;;;;;;;10327214;28;20100;-59
2023/07/09 10:55:31;;;;;;;3.05;2.72;;;;;;;;;;10326502;28;20083;-59
2023/07/09 11:00:34;;;;;;;2.22;2.00;;;;;;;;;;10326939;28;20075;-58
2023/07/09 11:05:33;;;;;;;2.65;1.98;;;;;;;;;;10328367;28;20064;-59
2023/07/09 11:10:33;;;;;;;4.00;1.90;;;;;;;;;;10334396;28;20064;-59
2023/07/09 11:15:35;;;;;;;3.03;2.08;;;;;;;;;;10327670;28;20072;-59
2023/07/09 11:20:34;;;;;;;2.45;2.25;;;;;;;;;;10327110;28;20500;-59
2023/07/09 11:25:42;;;;;;;2.60;2.13;;;;;;;;;;10330719;28;20071;-59
2023/07/09 11:30:49;;;;;;;1.83;1.38;;;;;;;;;;10334065;28;20075;-59
2023/07/09 11:35:48;;;;;;;5.05;2.40;;;;;;;;;;10328571;28;20493;-59
2023/07/09 11:40:46;;;;;;;2.22;2.03;;;;;;;;;;10327874;28;20108;-59
2023/07/09 11:45:45;;;;;;;4.63;4.03;;;;;;;;;;10332739;28;20071;-59
2023/07/09 11:50:45;;;;;;;3.33;2.28;;;;;;;;;;10327077;28;20076;-59
2023/07/09 11:55:45;;;;;;;2.47;2.28;;;;;;;;;;10324926;28;20094;-59
2023/07/09 12:00:46;;;;;;;4.03;2.63;;;;;;;;;;10328406;28;20067;-58
2023/07/09 12:05:49;;;;;;;3.00;2.40;;;;;;;;;;10329387;28;20076;-59
2023/07/09 12:10:49;;;;;;;3.83;1.90;;;;;;;;;;10328577;28;20072;-58
2023/07/09 12:15:47;;;;;;;3.55;2.35;;;;;;;;;;10329238;28;20219;-58
2023/07/09 12:20:48;;;;;;;2.53;2.28;;;;;;;;;;10314962;28;20041;-58
2023/07/09 12:25:50;;;;;;;3.42;2.03;;;;;;;;;;10330892;28;20075;-59
2023/07/09 12:30:48;;;;;;;5.22;1.92;;;;;;;;;;10329806;28;20071;-58
2023/07/09 12:35:47;;;;;;;4.15;2.60;;;;;;;;;;10330793;28;20091;-58
2023/07/09 12:40:45;;;;;;;3.63;2.13;;;;;;;;;;10330505;28;20075;-58
2023/07/09 12:45:45;;;;;;;5.22;2.80;;;;;;;;;;10325438;28;20135;-58
2023/07/09 12:50:49;;;;;;;3.28;2.97;;;;;;;;;;10324236;28;20053;-58
2023/07/09 12:55:50;;;;;;;2.63;2.42;;;;;;;;;;10333978;28;20488;-58
2023/07/09 13:00:53;;;;;;;2.45;2.25;;;;;;;;;;10336786;28;20060;-58
2023/07/09 13:05:53;;;;;;;3.35;2.25;;;;;;;;;;10336262;28;20071;-57
2023/07/09 13:10:51;;;;;;;4.35;2.70;;;;;;;;;;10335278;28;20068;-58
2023/07/09 13:15:56;;;;;;;3.08;2.78;;;;;;;;;;10336002;28;20068;-58
2023/07/09 13:20:56;;;;;;;4.47;2.20;;;;;;;;;;10335585;28;20068;-59
2023/07/09 13:25:56;;;;;;;3.67;2.83;;;;;;;;;;10335315;28;20071;-59
2023/07/09 13:30:56;;;;;;;4.90;2.50;;;;;;;;;;10335415;28;20075;-58
2023/07/09 13:35:56;;;;;;;5.18;3.17;;;;;;;;;;10334751;28;20608;-60
2023/07/09 13:40:56;;;;;;;4.22;2.70;;;;;;;;;;10331846;28;20071;-59
2023/07/09 13:45:56;;;;;;;2.97;2.38;;;;;;;;;;10333113;28;20075;-59
2023/07/09 13:50:56;;;;;;;4.88;2.60;;;;;;;;;;10332565;28;20084;-59
2023/07/09 13:55:54;;;;;;;3.13;2.75;;;;;;;;;;10333709;28;20076;-61
2023/07/09 14:00:56;;;;;;;2.63;2.30;;;;;;;;;;10332714;28;20566;-59
2023/07/09 14:05:54;;;;;;;4.90;2.30;;;;;;;;;;10331390;28;20076;-59
2023/07/09 14:10:55;;;;;;;4.05;2.70;;;;;;;;;;10331076;28;20068;-59
2023/07/09 14:15:53;;;;;;;3.53;2.90;;;;;;;;;;10334096;28;20072;-58
2023/07/09 14:20:53;;;;;;;3.95;2.78;;;;;;;;;;10332525;28;20497;-59
2023/07/09 14:25:51;;;;;;;8.85;4.20;;;;;;;;;;10334378;28;20071;-58
2023/07/09 14:30:51;;;;;;;8.02;4.38;;;;;;;;;;10329687;28;21186;-59
2023/07/09 14:35:50;;;;;;;3.15;2.60;;;;;;;;;;10341937;28;20131;-59
2023/07/09 14:40:49;;;;;;;2.47;2.25;;;;;;;;;;10336955;28;20067;-59
2023/07/09 14:45:48;;;;;;;10.50;3.47;;;;;;;;;;10335427;28;20070;-59
2023/07/09 14:50:48;;;;;;;5.20;2.58;;;;;;;;;;10339816;28;20075;-59
2023/07/09 14:55:46;;;;;;;3.08;2.03;;;;;;;;;;10338488;28;20078;-59
2023/07/09 15:00:46;;;;;;;8.35;2.28;;;;;;;;;;10337198;28;20076;-58
2023/07/09 15:05:45;;;;;;;3.40;3.10;;;;;;;;;;10338327;28;20056;-60
2023/07/09 15:10:45;;;;;;;3.55;2.83;;;;;;;;;;10339016;28;20064;-59
2023/07/09 15:15:44;;;;;;;5.88;4.20;;;;;;;;;;10333407;28;20084;-59
2023/07/09 15:20:44;;;;;;;6.22;3.63;;;;;;;;;;10335118;28;20477;-58
2023/07/09 15:25:42;;;;;;;4.75;2.42;;;;;;;;;;10330531;28;20064;-59
2023/07/09 15:30:42;;;;;;;4.97;2.97;;;;;;;;;;10338502;28;20067;-59
2023/07/09 15:35:40;;;;;;;7.55;4.57;;;;;;;;;;10331565;28;20083;-59
2023/07/09 15:40:38;;;;;;;6.80;4.88;;;;;;;;;;10332383;28;20485;-58
2023/07/09 15:45:38;;;;;;;4.90;2.85;;;;;;;;;;10332795;28;20086;-58
2023/07/09 15:50:38;;;;;;;4.95;3.45;;;;;;;;;;10330662;28;20195;-59
2023/07/09 15:55:36;;;;;;;9.05;6.05;;;;;;;;;;10333814;28;20076;-59
2023/07/09 16:00:37;;;;;;;10.25;6.35;;;;;;;;;;10330867;28;20098;-59
2023/07/09 16:05:37;;;;;;;6.38;2.67;;;;;;;;;;10331084;28;20075;-59
2023/07/09 16:10:37;;;;;;;5.68;3.70;;;;;;;;;;10333423;28;20067;-59
2023/07/09 16:15:35;;;;;;;6.35;5.00;;;;;;;;;;10310312;28;20079;-59
2023/07/09 16:20:33;;;;;;;3.70;3.20;;;;;;;;;;10332227;28;20067;-58
2023/07/09 16:25:32;;;;;;;10.40;7.82;;;;;;;;;;10332783;28;20059;-59
2023/07/09 16:30:32;;;;;;;10.27;9.13;;;;;;;;;;10338055;28;20072;-58
2023/07/09 16:35:33;;;;;;;7.18;5.13;;;;;;;;;;10334869;28;20485;-58
2023/07/09 16:40:32;;;;;;;6.88;6.18;;;;;;;;;;10342429;28;20074;-59
2023/07/09 16:45:32;;;;;;;4.53;2.55;;;;;;;;;;10336439;28;20072;-59
2023/07/09 16:50:30;;;;;;;4.38;3.97;;;;;;;;;;10334390;28;20083;-59
2023/07/09 16:55:28;;;;;;;2.95;2.65;;;;;;;;;;10334750;28;20091;-60
2023/07/09 17:00:28;;;;;;;4.78;2.88;;;;;;;;;;10318374;28;20068;-60
2023/07/09 17:05:28;;;;;;;8.77;3.08;;;;;;;;;;10336723;28;20071;-59
2023/07/09 17:10:26;;;;;;;3.78;3.45;;;;;;;;;;10332881;28;20102;-59
2023/07/09 17:15:26;;;;;;;4.07;2.72;;;;;;;;;;10332404;28;20076;-60
2023/07/09 17:20:25;;;;;;;5.10;4.60;;;;;;;;;;10332906;28;20083;-59
2023/07/09 17:25:28;;;;;;;6.03;5.00;;;;;;;;;;10332486;28;20068;-59
2023/07/09 17:30:28;;;;;;;11.50;5.95;;;;;;;;;;10334180;28;20072;-60
2023/07/09 17:35:26;;;;;;;4.90;3.40;;;;;;;;;;10335242;28;20080;-58
2023/07/09 17:40:27;;;;;;;6.53;5.20;;;;;;;;;;10332886;28;20106;-59
2023/07/09 17:45:40;;;;;;;7.05;3.63;;;;;;;;;;10337363;28;20080;-58
2023/07/09 17:50:39;;;;;;;4.32;3.92;;;;;;;;;;10333170;28;20052;-59
2023/07/09 17:55:38;;;;;;;8.70;5.00;;;;;;;;;;10333463;28;20072;-57
2023/07/09 18:00:37;;;;;;;6.05;3.67;;;;;;;;;;10330933;28;20080;-59
2023/07/09 18:05:35;;;;;;;5.78;3.30;;;;;;;;;;10333635;28;20502;-58
2023/07/09 18:10:35;;;;;;;9.05;4.60;;;;;;;;;;10330225;28;20064;-53
2023/07/09 18:15:35;;;;;;;7.22;4.60;;;;;;;;;;10333237;28;20067;-58
2023/07/09 18:20:35;;;;;;;8.77;5.90;;;;;;;;;;10328077;28;20493;-61
2023/07/09 18:25:33;;;;;;;7.15;4.30;;;;;;;;;;10333659;28;20120;-59
2023/07/09 18:30:33;;;;;;;9.68;5.35;;;;;;;;;;10331647;28;20075;-58
2023/07/09 18:35:34;;;;;;;11.27;9.57;;;;;;;;;;10333892;28;20490;-57
2023/07/09 18:40:35;;;;;;;22.50;19.27;;;;;;;;;;10339506;28;20078;-56
2023/07/09 18:45:34;;;;;;;10.30;7.72;;;;;;;;;;10337194;28;20509;-57
2023/07/09 18:50:33;;;;;;;9.52;7.93;;;;;;;;;;10333790;28;20084;-58
2023/07/09 18:55:32;;;;;;;19.08;14.02;;;;;;;;;;10335668;28;20080;-58
2023/07/09 19:00:30;;;;;;;9.77;5.90;;;;;;;;;;10333488;28;20075;-58
2023/07/09 19:05:28;;;;;;;9.93;7.28;;;;;;;;;;10335115;28;20064;-59
2023/07/09 19:10:29;;;;;;;11.02;8.70;;;;;;;;;;10332637;28;20074;-55
2023/07/09 19:15:30;;;;;;;11.57;8.10;;;;;;;;;;10331547;28;20064;-58
2023/07/09 19:20:28;;;;;;;5.97;5.35;;;;;;;;;;10335807;28;20871;-58
2023/07/09 19:25:29;;;;;;;10.18;7.43;;;;;;;;;;10327256;28;20489;-56
2023/07/09 19:30:28;;;;;;;11.40;8.18;;;;;;;;;;10324941;28;20099;-59
2023/07/09 19:35:27;;;;;;;11.02;7.47;;;;;;;;;;10324221;28;20068;-58
2023/07/09 19:40:26;;;;;;;6.70;5.45;;;;;;;;;;10329671;28;20509;-58
2023/07/09 19:45:27;;;;;;;5.57;4.85;;;;;;;;;;10320509;28;20091;-58
2023/07/09 19:50:27;;;;;;;9.27;7.13;;;;;;;;;;10325592;28;20595;-60
2023/07/09 19:55:26;;;;;;;8.10;4.63;;;;;;;;;;10329173;28;20445;-59
2023/07/09 20:00:26;;;;;;;8.00;5.30;;;;;;;;;;10329735;28;20079;-59
2023/07/09 20:05:27;;;;;;;8.90;6.53;;;;;;;;;;10341283;28;20063;-59
2023/07/09 20:10:26;;;;;;;10.98;6.72;;;;;;;;;;10340762;28;20119;-55
2023/07/09 20:15:26;;;;;;;13.85;8.25;;;;;;;;;;10341653;28;20079;-59
2023/07/09 20:20:25;;;;;;;9.15;5.55;;;;;;;;;;10335767;28;20079;-56
2023/07/09 20:25:25;;;;;;;7.03;3.88;;;;;;;;;;10339624;28;20071;-57
2023/07/09 20:30:23;;;;;;;5.53;3.88;;;;;;;;;;10346559;28;20071;-59
2023/07/09 20:35:24;;;;;;;4.28;3.58;;;;;;;;;;10341961;28;20074;-59
2023/07/09 20:40:23;;;;;;;5.07;3.78;;;;;;;;;;10345443;28;20068;-59
2023/07/09 20:45:24;;;;;;;4.78;3.10;;;;;;;;;;10338315;28;20075;-59
2023/07/09 20:50:24;;;;;;;3.42;3.13;;;;;;;;;;10344287;28;20076;-58
2023/07/09 20:55:22;;;;;;;5.63;3.65;;;;;;;;;;10347443;28;20068;-59
2023/07/09 21:00:21;;;;;;;8.77;3.60;;;;;;;;;;10346567;28;20459;-58
2023/07/09 21:05:20;;;;;;;3.78;3.40;;;;;;;;;;10346094;28;20086;-59
2023/07/09 21:10:21;;;;;;;5.25;3.92;;;;;;;;;;10346342;28;20068;-56
2023/07/09 21:15:23;;;;;;;5.13;3.60;;;;;;;;;;10341278;28;20501;-55
2023/07/09 21:20:22;;;;;;;5.93;3.65;;;;;;;;;;10341112;28;20708;-57
2023/07/09 21:25:23;;;;;;;7.82;3.53;;;;;;;;;;10340334;28;20071;-59
2023/07/09 21:30:22;;;;;;;4.85;4.00;;;;;;;;;;10339125;28;20083;-59
2023/07/09 21:35:21;;;;;;;7.30;4.13;;;;;;;;;;10336634;28;20509;-58
2023/07/09 21:40:25;;;;;;;5.82;3.63;;;;;;;;;;10338089;28;20079;-59
2023/07/09 21:45:25;;;;;;;7.07;3.80;;;;;;;;;;10340441;28;20584;-60
2023/07/09 21:50:23;;;;;;;4.10;3.58;;;;;;;;;;10343512;28;20078;-61
2023/07/09 21:55:22;;;;;;;6.63;3.90;;;;;;;;;;10329670;28;20072;-57
2023/07/09 22:00:23;;;;;;;6.47;4.00;;;;;;;;;;10336637;28;20505;-59
2023/07/09 22:05:22;;;;;;;6.70;4.45;;;;;;;;;;10336217;28;20090;-59
2023/07/09 22:10:24;;;;;;;5.82;4.22;;;;;;;;;;10336641;28;20087;-59
2023/07/09 22:15:24;;;;;;;8.07;3.75;;;;;;;;;;10333741;28;20578;-60
2023/07/09 22:20:24;;;;;;;11.95;4.53;;;;;;;;;;10327439;28;20079;-59
2023/07/09 22:25:24;;;;;;;17.38;5.32;;;;;;;;;;10332486;28;20072;-61
2023/07/09 22:30:25;;;;;;;8.02;4.68;;;;;;;;;;10332470;28;20068;-59
2023/07/09 22:35:25;;;;;;;7.50;4.28;;;;;;;;;;10341681;28;20071;-59
2023/07/09 22:40:25;;;;;;;4.35;3.55;;;;;;;;;;10336110;28;20462;-59
2023/07/09 22:45:26;;;;;;;3.75;3.42;;;;;;;;;;10341468;28;20047;-58
2023/07/09 22:50:27;;;;;;;5.28;3.67;;;;;;;;;;10334479;28;20079;-60
2023/07/09 22:55:33;;;;;;;8.57;3.20;;;;;;;;;;10335205;28;20083;-59
2023/07/09 23:00:34;;;;;;;6.65;3.53;;;;;;;;;;10335939;28;20082;-59
2023/07/09 23:05:32;;;;;;;4.40;3.90;;;;;;;;;;10338593;28;20079;-59
2023/07/09 23:10:30;;;;;;;4.90;3.30;;;;;;;;;;10332951;28;20079;-59
2023/07/09 23:15:30;;;;;;;5.75;4.18;;;;;;;;;;10334560;28;20086;-59
2023/07/09 23:20:29;;;;;;;7.05;3.60;;;;;;;;;;10333357;28;20080;-59
2023/07/09 23:25:28;;;;;;;5.35;3.33;;;;;;;;;;10334710;28;20134;-59
2023/07/09 23:30:32;;;;;;;8.82;3.65;;;;;;;;;;10330589;28;20068;-59
2023/07/09 23:35:31;;;;;;;5.60;3.63;;;;;;;;;;10334033;28;20087;-59
2023/07/09 23:40:31;;;;;;;4.18;3.78;;;;;;;;;;10332007;28;20091;-59
2023/07/09 23:45:31;;;;;;;4.60;3.60;;;;;;;;;;10335943;28;20052;-59
2023/07/09 23:50:29;;;;;;;6.20;3.63;;;;;;;;;;10331492;28;20079;-59
2023/07/09 23:55:30;;;;;;;4.47;3.90;;;;;;;;;;10330787;28;20067;-59
